createdAt,value
2023-02-02T00:00:00.829Z,9.60
2023-02-02T00:03:03.473Z,9.59
2023-02-02T00:06:06.664Z,9.59
2023-02-02T00:09:10.532Z,9.57
2023-02-02T00:12:14.471Z,9.57
2023-02-02T00:15:17.207Z,9.58
2023-02-02T00:18:19.731Z,9.56
2023-02-02T00:21:22.367Z,9.57
2023-02-02T00:24:24.956Z,9.56
2023-02-02T00:27:28.911Z,9.56
2023-02-02T00:30:31.473Z,9.56
2023-02-02T00:33:34.093Z,9.57
2023-02-02T00:36:36.660Z,9.57
2023-02-02T00:39:39.198Z,9.58
2023-02-02T00:42:43.440Z,9.58
2023-02-02T00:45:45.033Z,9.59
2023-02-02T00:48:47.559Z,9.61
2023-02-02T00:51:50.118Z,9.62
2023-02-02T00:54:52.743Z,9.61
2023-02-02T00:57:56.739Z,9.62
2023-02-02T01:00:59.336Z,9.63
2023-02-02T01:04:02.485Z,9.64
2023-02-02T01:07:05.093Z,9.63
2023-02-02T01:10:08.818Z,9.62
2023-02-02T01:13:12.679Z,9.63
2023-02-02T01:16:15.878Z,9.63
2023-02-02T01:19:18.443Z,9.63
2023-02-02T01:22:21.040Z,9.62
2023-02-02T01:25:23.905Z,9.60
2023-02-02T01:28:28.111Z,9.58
2023-02-02T01:31:30.691Z,9.57
2023-02-02T01:34:33.254Z,9.57
2023-02-02T01:37:35.779Z,9.58
2023-02-02T01:40:38.282Z,9.58
2023-02-02T01:43:59.268Z,9.55
2023-02-02T01:47:01.785Z,9.56
2023-02-02T01:50:04.890Z,9.53
2023-02-02T01:53:07.409Z,9.57
2023-02-02T01:56:10.475Z,9.56
2023-02-02T01:59:14.605Z,9.54
2023-02-02T02:02:17.155Z,9.54
2023-02-02T02:05:20.890Z,9.53
2023-02-02T02:08:24.775Z,9.55
2023-02-02T02:11:27.472Z,9.55
2023-02-02T02:14:48.892Z,9.56
2023-02-02T02:18:00.397Z,9.56
2023-02-02T02:21:55.055Z,9.56
2023-02-02T02:25:36.524Z,9.57
2023-02-02T02:29:17.602Z,9.55
2023-02-02T02:32:28.507Z,9.55
2023-02-02T02:35:33.275Z,9.56
2023-02-02T02:38:37.297Z,9.57
2023-02-02T02:41:42.584Z,9.59
2023-02-02T02:44:45.163Z,9.58
2023-02-02T02:47:49.097Z,9.60
2023-02-02T02:50:51.662Z,9.60
2023-02-02T02:53:54.249Z,9.61
2023-02-02T02:57:11.795Z,9.61
2023-02-02T03:00:23.871Z,9.60
2023-02-02T03:03:34.458Z,9.59
2023-02-02T03:06:39.512Z,9.58
2023-02-02T03:09:43.286Z,9.57
2023-02-02T03:12:46.526Z,9.57
2023-02-02T03:15:49.098Z,9.56
2023-02-02T03:18:53.042Z,9.55
2023-02-02T03:21:55.615Z,9.54
2023-02-02T03:24:59.414Z,9.54
2023-02-02T03:28:01.948Z,9.55
2023-02-02T03:31:04.657Z,9.54
2023-02-02T03:34:08.610Z,9.55
2023-02-02T03:37:11.349Z,9.54
2023-02-02T03:40:14.290Z,9.54
2023-02-02T03:43:21.258Z,9.55
2023-02-02T03:46:23.799Z,9.56
2023-02-02T03:49:27.804Z,9.57
2023-02-02T03:52:30.323Z,9.57
2023-02-02T03:55:32.902Z,9.58
2023-02-02T03:58:35.481Z,9.60
2023-02-02T04:01:38.117Z,9.59
2023-02-02T04:04:42.124Z,9.60
2023-02-02T04:07:44.642Z,9.60
2023-02-02T04:10:47.200Z,9.59
2023-02-02T04:13:49.728Z,9.58
2023-02-02T04:16:52.260Z,9.59
2023-02-02T04:19:58.400Z,9.58
2023-02-02T04:23:01.018Z,9.58
2023-02-02T04:26:03.616Z,9.59
2023-02-02T04:29:06.144Z,9.56
2023-02-02T04:32:08.733Z,9.55
2023-02-02T04:35:12.675Z,9.55
2023-02-02T04:38:15.235Z,9.55
2023-02-02T04:41:18.659Z,9.55
2023-02-02T04:44:21.219Z,9.54
2023-02-02T04:47:23.758Z,9.56
2023-02-02T04:50:27.812Z,9.55
2023-02-02T04:53:30.470Z,9.56
2023-02-02T04:56:33.004Z,9.56
2023-02-02T04:59:35.569Z,9.56
2023-02-02T05:02:38.180Z,9.57
2023-02-02T05:05:42.109Z,9.56
2023-02-02T05:08:44.815Z,9.57
2023-02-02T05:11:47.355Z,9.58
2023-02-02T05:14:49.877Z,9.59
2023-02-02T05:17:52.399Z,9.59
2023-02-02T05:20:56.304Z,9.59
2023-02-02T05:23:59.679Z,9.57
2023-02-02T05:27:02.267Z,9.57
2023-02-02T05:30:05.668Z,9.57
2023-02-02T05:33:08.205Z,9.57
2023-02-02T05:36:12.117Z,9.57
2023-02-02T05:39:14.739Z,9.56
2023-02-02T05:42:17.254Z,9.56
2023-02-02T05:45:19.787Z,9.55
2023-02-02T05:48:22.355Z,9.53
2023-02-02T05:51:27.596Z,9.51
2023-02-02T05:54:30.191Z,9.52
2023-02-02T05:57:32.771Z,9.50
2023-02-02T06:00:35.308Z,9.49
2023-02-02T06:03:37.974Z,9.50
2023-02-02T06:06:42.190Z,9.48
2023-02-02T06:09:44.729Z,9.46
2023-02-02T06:12:47.249Z,9.45
2023-02-02T06:15:49.904Z,9.45
2023-02-02T06:18:52.604Z,9.45
2023-02-02T06:21:56.506Z,9.44
2023-02-02T06:24:59.043Z,9.46
2023-02-02T06:28:01.675Z,9.44
2023-02-02T06:31:05.621Z,9.45
2023-02-02T06:34:08.504Z,9.45
2023-02-02T06:37:12.447Z,9.48
2023-02-02T06:40:15.095Z,9.47
2023-02-02T06:43:17.627Z,9.45
2023-02-02T06:46:20.234Z,9.47
2023-02-02T06:49:22.836Z,9.45
2023-02-02T06:52:26.729Z,9.44
2023-02-02T06:55:29.267Z,9.44
2023-02-02T06:58:31.981Z,9.44
2023-02-02T07:01:34.574Z,9.43
2023-02-02T07:04:37.150Z,9.43
2023-02-02T07:07:41.101Z,9.44
2023-02-02T07:11:13.626Z,9.42
2023-02-02T07:14:07.290Z,9.40
2023-02-02T07:17:09.866Z,9.40
2023-02-02T07:20:12.833Z,9.39
2023-02-02T07:23:16.712Z,9.37
2023-02-02T07:26:19.770Z,9.35
2023-02-02T07:29:22.428Z,9.33
2023-02-02T07:32:24.947Z,9.33
2023-02-02T07:35:27.455Z,9.33
2023-02-02T07:38:31.394Z,9.33
2023-02-02T07:41:35.005Z,9.31
2023-02-02T07:44:37.545Z,9.31
2023-02-02T07:47:40.179Z,9.30
2023-02-02T07:50:42.779Z,9.31
2023-02-02T07:53:46.941Z,9.30
2023-02-02T07:56:49.528Z,9.29
2023-02-02T07:59:52.286Z,9.31
2023-02-02T08:02:54.854Z,9.33
2023-02-02T08:05:57.583Z,9.33
2023-02-02T08:09:01.847Z,9.35
2023-02-02T08:12:04.579Z,9.36
2023-02-02T08:15:08.190Z,9.36
2023-02-02T08:18:10.722Z,9.37
2023-02-02T08:21:13.344Z,9.36
2023-02-02T08:24:17.265Z,9.39
2023-02-02T08:27:19.897Z,9.40
2023-02-02T08:30:22.459Z,9.46
2023-02-02T08:33:25.578Z,9.49
2023-02-02T08:36:29.290Z,9.52
2023-02-02T08:39:33.208Z,9.54
2023-02-02T08:42:35.752Z,9.55
2023-02-02T08:46:12.531Z,9.56
2023-02-02T08:49:00.806Z,9.56
2023-02-02T08:52:03.376Z,9.57
2023-02-02T08:55:08.071Z,9.58
2023-02-02T08:58:11.023Z,9.59
2023-02-02T09:01:14.685Z,9.61
2023-02-02T09:04:17.371Z,9.62
2023-02-02T09:07:21.207Z,9.62
2023-02-02T09:10:25.262Z,9.63
2023-02-02T09:13:27.844Z,9.65
2023-02-02T09:16:30.503Z,9.66
2023-02-02T09:19:33.084Z,9.68
2023-02-02T09:22:35.615Z,9.71
2023-02-02T09:25:39.527Z,9.76
2023-02-02T09:28:43.317Z,9.82
2023-02-02T09:31:46.868Z,9.86
2023-02-02T09:34:49.507Z,9.92
2023-02-02T09:37:52.055Z,9.99
2023-02-02T09:40:56.065Z,10.06
2023-02-02T09:44:03.200Z,10.12
2023-02-02T09:47:11.481Z,10.13
2023-02-02T09:50:16.761Z,10.17
2023-02-02T09:53:22.348Z,10.17
2023-02-02T09:56:27.690Z,10.16
2023-02-02T09:59:31.973Z,10.22
2023-02-02T10:02:38.736Z,10.27
2023-02-02T10:05:46.231Z,10.24
2023-02-02T10:08:49.679Z,10.25
2023-02-02T10:11:55.941Z,10.20
2023-02-02T10:15:00.563Z,10.17
2023-02-02T10:18:06.095Z,10.16
2023-02-02T10:21:11.775Z,10.23
2023-02-02T10:24:17.616Z,10.35
2023-02-02T10:27:24.425Z,10.42
2023-02-02T10:30:30.949Z,10.47
2023-02-02T10:33:37.401Z,10.56
2023-02-02T10:36:47.088Z,10.51
2023-02-02T10:39:57.908Z,10.48
2023-02-02T10:43:47.665Z,10.44
2023-02-02T10:46:51.616Z,10.48
2023-02-02T10:49:59.110Z,10.48
2023-02-02T10:53:02.679Z,10.50
2023-02-02T10:56:06.936Z,10.51
2023-02-02T10:59:13.989Z,10.51
2023-02-02T11:02:21.063Z,10.51
2023-02-02T11:05:41.740Z,10.49
2023-02-02T11:08:44.921Z,10.47
2023-02-02T11:11:47.746Z,10.45
2023-02-02T11:14:53.485Z,10.46
2023-02-02T11:17:56.048Z,10.45
2023-02-02T11:20:58.642Z,10.46
2023-02-02T11:24:02.399Z,10.46
2023-02-02T11:27:06.328Z,10.44
2023-02-02T11:30:22.442Z,10.40
2023-02-02T11:33:29.015Z,10.36
2023-02-02T11:36:32.064Z,10.34
2023-02-02T11:39:34.622Z,10.35
2023-02-02T11:42:37.315Z,10.37
2023-02-02T11:45:42.055Z,10.40
2023-02-02T11:48:49.534Z,10.40
2023-02-02T11:51:58.575Z,10.34
2023-02-02T11:55:02.695Z,10.29
2023-02-02T11:58:24.739Z,10.27
2023-02-02T12:01:29.359Z,10.27
2023-02-02T12:04:32.617Z,10.29
2023-02-02T12:07:35.861Z,10.28
2023-02-02T12:10:42.272Z,10.26
2023-02-02T12:13:53.162Z,10.24
2023-02-02T12:17:02.801Z,10.20
2023-02-02T12:20:19.467Z,10.14
2023-02-02T12:23:35.341Z,10.07
2023-02-02T12:26:38.010Z,10.00
2023-02-02T12:29:58.047Z,9.97
2023-02-02T12:33:08.767Z,9.92
2023-02-02T12:36:24.628Z,9.84
2023-02-02T12:39:35.513Z,9.77
2023-02-02T12:42:52.922Z,9.67
2023-02-02T12:46:02.381Z,9.64
2023-02-02T12:49:16.976Z,9.60
2023-02-02T12:52:26.963Z,9.58
2023-02-02T12:55:31.589Z,9.53
2023-02-02T12:58:37.227Z,9.48
2023-02-02T13:01:46.574Z,9.41
2023-02-02T13:05:00.037Z,9.40
2023-02-02T13:08:03.149Z,9.37
2023-02-02T13:11:08.191Z,9.36
2023-02-02T13:14:12.368Z,9.36
2023-02-02T13:17:16.754Z,9.29
2023-02-02T13:20:37.892Z,9.27
2023-02-02T13:23:42.223Z,9.24
2023-02-02T13:26:45.264Z,9.21
2023-02-02T13:29:50.185Z,9.20
2023-02-02T13:32:53.211Z,9.19
2023-02-02T13:35:58.519Z,9.16
2023-02-02T13:39:01.305Z,9.13
2023-02-02T13:42:04.245Z,9.12
2023-02-02T13:45:10.845Z,9.11
2023-02-02T13:48:18.086Z,9.10
2023-02-02T13:51:45.329Z,9.08
2023-02-02T13:55:01.697Z,9.08
2023-02-02T13:58:34.191Z,9.11
2023-02-02T14:01:36.767Z,9.10
2023-02-02T14:04:39.346Z,9.10
2023-02-02T14:07:44.173Z,9.10
2023-02-02T14:10:57.595Z,9.12
2023-02-02T14:14:24.323Z,9.11
2023-02-02T14:17:55.175Z,9.14
2023-02-02T14:20:57.797Z,9.14
2023-02-02T14:24:03.010Z,9.17
2023-02-02T14:27:34.619Z,9.20
2023-02-02T14:30:38.540Z,9.22
2023-02-02T14:33:47.241Z,9.24
2023-02-02T14:36:52.620Z,9.27
2023-02-02T14:39:59.395Z,9.30
2023-02-02T14:43:33.987Z,9.33
2023-02-02T14:46:40.041Z,9.32
2023-02-02T14:49:42.605Z,9.35
2023-02-02T14:52:45.120Z,9.36
2023-02-02T14:55:55.228Z,9.40
2023-02-02T14:59:00.118Z,9.40
2023-02-02T15:02:16.474Z,9.45
2023-02-02T15:05:41.789Z,9.42
2023-02-02T15:08:44.683Z,9.42
2023-02-02T15:12:26.149Z,9.50
2023-02-02T15:15:29.875Z,9.52
2023-02-02T15:18:34.289Z,9.55
2023-02-02T15:21:37.286Z,9.58
2023-02-02T15:24:39.853Z,9.61
2023-02-02T15:27:56.291Z,9.66
2023-02-02T15:31:00.891Z,9.65
2023-02-02T15:34:04.845Z,9.71
2023-02-02T15:37:08.675Z,9.68
2023-02-02T15:40:15.171Z,9.77
2023-02-02T15:43:19.062Z,9.75
2023-02-02T15:46:24.848Z,9.73
2023-02-02T15:49:35.054Z,9.73
2023-02-02T15:52:38.037Z,9.77
2023-02-02T15:55:40.578Z,9.73
2023-02-02T15:58:48.270Z,9.78
2023-02-02T16:01:52.132Z,9.80
2023-02-02T16:04:54.691Z,9.82
2023-02-02T16:08:05.584Z,9.84
2023-02-02T16:11:11.149Z,9.86
2023-02-02T16:14:17.589Z,9.88
2023-02-02T16:17:21.504Z,9.91
2023-02-02T16:20:24.036Z,9.93
2023-02-02T16:23:29.032Z,9.95
2023-02-02T16:26:31.620Z,9.97
2023-02-02T16:29:35.507Z,9.97
2023-02-02T16:32:39.598Z,10.02
2023-02-02T16:35:42.131Z,10.05
2023-02-02T16:38:44.721Z,10.07
2023-02-02T16:41:49.165Z,10.10
2023-02-02T16:44:53.164Z,10.12
2023-02-02T16:48:26.908Z,10.14
2023-02-02T16:51:29.549Z,10.16
2023-02-02T16:54:32.163Z,10.17
2023-02-02T16:57:34.696Z,10.19
2023-02-02T17:00:38.625Z,10.21
2023-02-02T17:03:43.125Z,10.24
2023-02-02T17:06:52.809Z,10.25
2023-02-02T17:10:12.729Z,10.28
2023-02-02T17:13:38.143Z,10.27
2023-02-02T17:16:42.886Z,10.26
2023-02-02T17:19:46.836Z,10.23
2023-02-02T17:22:50.238Z,10.27
2023-02-02T17:25:52.765Z,10.27
2023-02-02T17:28:56.128Z,10.33
2023-02-02T17:32:00.082Z,10.34
2023-02-02T17:35:02.636Z,10.36
2023-02-02T17:38:05.183Z,10.36
2023-02-02T17:41:07.753Z,10.36
2023-02-02T17:44:10.650Z,10.35
2023-02-02T17:47:14.764Z,10.34
2023-02-02T17:50:17.870Z,10.36
2023-02-02T17:53:21.270Z,10.32
2023-02-02T17:56:23.813Z,10.31
2023-02-02T17:59:26.348Z,10.29
2023-02-02T18:02:30.217Z,10.27
2023-02-02T18:05:32.750Z,10.25
2023-02-02T18:08:35.296Z,10.24
2023-02-02T18:11:38.367Z,10.21
2023-02-02T18:14:40.899Z,10.19
2023-02-02T18:17:44.792Z,10.16
2023-02-02T18:20:47.951Z,10.15
2023-02-02T18:23:50.519Z,10.16
2023-02-02T18:26:53.080Z,10.14
2023-02-02T18:29:55.839Z,10.16
2023-02-02T18:32:59.788Z,10.17
2023-02-02T18:36:03.142Z,10.15
2023-02-02T18:39:05.691Z,10.17
2023-02-02T18:42:08.247Z,10.21
2023-02-02T18:45:11.306Z,10.22
2023-02-02T18:48:16.087Z,10.22
2023-02-02T18:51:18.818Z,10.24
2023-02-02T18:54:22.240Z,10.26
2023-02-02T18:57:24.771Z,10.30
2023-02-02T19:00:27.467Z,10.33
2023-02-02T19:03:31.350Z,10.35
2023-02-02T19:06:51.313Z,10.39
2023-02-02T19:09:53.843Z,10.41
2023-02-02T19:12:58.493Z,10.42
2023-02-02T19:16:01.418Z,10.44
2023-02-02T19:19:09.563Z,10.33
2023-02-02T19:22:18.267Z,10.47
2023-02-02T19:25:20.923Z,10.50
2023-02-02T19:28:25.194Z,10.50
2023-02-02T19:31:27.990Z,10.50
2023-02-02T19:34:32.070Z,10.51
2023-02-02T19:37:38.645Z,10.51
2023-02-02T19:40:41.786Z,10.51
2023-02-02T19:43:47.570Z,10.48
2023-02-02T19:46:51.435Z,10.48
2023-02-02T19:49:55.358Z,10.47
2023-02-02T19:52:57.970Z,10.45
2023-02-02T19:56:00.536Z,10.44
2023-02-02T19:59:03.071Z,10.42
2023-02-02T20:02:34.561Z,10.40
2023-02-02T20:05:39.025Z,10.38
2023-02-02T20:08:42.385Z,10.37
2023-02-02T20:11:45.781Z,10.36
2023-02-02T20:14:48.341Z,10.34
2023-02-02T20:17:51.505Z,10.29
2023-02-02T20:20:55.899Z,10.33
2023-02-02T20:23:58.447Z,10.31
2023-02-02T20:27:04.426Z,10.31
2023-02-02T20:30:18.884Z,10.33
2023-02-02T20:33:24.281Z,10.15
2023-02-02T20:36:37.480Z,10.31
2023-02-02T20:39:41.354Z,10.33
2023-02-02T20:42:43.872Z,10.34
2023-02-02T20:45:46.440Z,10.36
2023-02-02T20:48:49.080Z,10.37
2023-02-02T20:51:53.238Z,10.39
2023-02-02T20:54:56.928Z,10.41
2023-02-02T20:57:59.465Z,10.44
2023-02-02T21:01:05.302Z,10.45
2023-02-02T21:04:07.976Z,10.45
2023-02-02T21:07:11.869Z,10.47
2023-02-02T21:10:14.416Z,10.48
2023-02-02T21:13:17.004Z,10.49
2023-02-02T21:16:19.600Z,10.51
2023-02-02T21:19:22.152Z,10.51
2023-02-02T21:22:26.073Z,10.50
2023-02-02T21:25:28.613Z,10.50
2023-02-02T21:28:31.153Z,10.48
2023-02-02T21:31:35.095Z,10.43
2023-02-02T21:34:37.997Z,10.49
2023-02-02T21:37:43.998Z,10.48
2023-02-02T21:40:47.115Z,10.46
2023-02-02T21:43:49.633Z,10.45
2023-02-02T21:46:52.175Z,10.45
2023-02-02T21:49:55.431Z,10.42
2023-02-02T21:53:12.903Z,10.37
2023-02-02T21:56:24.807Z,10.41
2023-02-02T21:59:30.049Z,10.40
2023-02-02T22:02:38.666Z,10.35
2023-02-02T22:05:41.283Z,10.37
2023-02-02T22:08:45.291Z,10.34
2023-02-02T22:11:49.359Z,10.33
2023-02-02T22:14:52.859Z,10.34
2023-02-02T22:17:55.810Z,10.32
2023-02-02T22:20:58.358Z,10.33
2023-02-02T22:24:02.673Z,10.34
2023-02-02T22:27:09.912Z,10.32
2023-02-02T22:30:24.752Z,10.34
2023-02-02T22:33:27.573Z,10.34
2023-02-02T22:36:30.140Z,10.32
2023-02-02T22:39:34.612Z,10.33
2023-02-02T22:42:37.200Z,10.33
2023-02-02T22:45:39.774Z,10.32
2023-02-02T22:48:42.304Z,10.31
2023-02-02T22:51:44.825Z,10.31
2023-02-02T22:54:48.700Z,10.31
2023-02-02T22:57:51.291Z,10.28
2023-02-02T23:00:53.826Z,10.30
2023-02-02T23:03:56.614Z,10.28
2023-02-02T23:06:59.197Z,10.26
2023-02-02T23:10:03.263Z,10.24
2023-02-02T23:13:05.869Z,10.22
2023-02-02T23:16:10.640Z,10.23
2023-02-02T23:19:13.291Z,10.23
2023-02-02T23:22:15.810Z,10.23
2023-02-02T23:25:19.801Z,10.22
2023-02-02T23:28:22.374Z,10.23
2023-02-02T23:31:25.075Z,10.22
2023-02-02T23:34:27.657Z,10.20
2023-02-02T23:37:30.262Z,10.20
2023-02-02T23:40:34.135Z,10.21
2023-02-02T23:43:36.687Z,10.22
2023-02-02T23:46:39.276Z,10.15
2023-02-02T23:49:41.868Z,10.18
2023-02-02T23:52:44.416Z,10.19
2023-02-02T23:55:48.332Z,10.19
2023-02-02T23:58:50.874Z,10.19
